PWSweather.com
Personal Weather Stations
Station Observations
ZYBORSKI
Fromes HillGB hr8 1

Fromes HillGB hr8 1

Lat: 52.1172558, Lon: -2.4749163

Elevation: 0

Station Type: FineOffset

High Low Average
Temperature 0.0°F-17.8°F 0.0°F-17.8°F 0.0°F-17.8°F
Dew Point 0.0°F-17.8°F 0.0°F-17.8°F 0.0°F-17.8°F
Winds Calm Calm Calm Calm Calm Calm
Wind Gusts -- -- --
Humidity 0% 0% 0%
Pressure 0.00 in0.00 in 0.00 in0.00 in -
Precipitation 0.00 in0.0 mm - -
Hour Temp Dew Point Humidity Winds Wind Gusts Pressure Precip Precip Rate Daily Precip Total
08:10 AM 57.4°F14.1°C 51.6°F10.9°C 81% 7.6 mph N12.2 kmh N 13.6 mph21.9 kmh 30.32 in1026.8 mb 0.00 in0.0 mm 0.00 in0.0 mm 0.00 in0.0 mm
08:15 AM 58.1°F14.5°C 53.0°F11.7°C 83% Calm Calm 13.6 mph21.9 kmh 30.31 in1026.4 mb 0.00 in0.0 mm 0.00 in0.0 mm 0.00 in0.0 mm
08:17 AM 62.6°F17.0°C 55.6°F13.1°C 78% Calm Calm 1.6 mph2.6 kmh 30.33 in1027.1 mb 0.00 in0.0 mm 0.00 in0.0 mm 0.00 in0.0 mm
08:18 AM 59.9°F15.5°C 58.2°F14.6°C 94% Calm Calm -- 30.35 in1027.8 mb 0.00 in0.0 mm 0.00 in0.0 mm 0.00 in0.0 mm
08:30 AM 58.6°F14.8°C 52.8°F11.6°C 81% 3.8 mph N6.1 kmh N 19.7 mph31.7 kmh 30.31 in1026.4 mb 0.00 in0.0 mm 0.00 in0.0 mm 0.00 in0.0 mm
08:45 AM 58.6°F14.8°C 52.2°F11.2°C 79% 6.9 mph N11.1 kmh N 18.3 mph29.5 kmh 30.32 in1026.8 mb 0.00 in0.0 mm 0.00 in0.0 mm 0.00 in0.0 mm
09:00 AM 59.5°F15.3°C 52.7°F11.5°C 78% 3.8 mph NNW6.1 kmh NNW 21.3 mph34.3 kmh 30.31 in1026.4 mb 0.00 in0.0 mm 0.00 in0.0 mm 0.00 in0.0 mm
09:15 AM 60.3°F15.7°C 52.7°F11.5°C 76% 7.6 mph NNW12.2 kmh NNW 25.1 mph40.4 kmh 30.31 in1026.4 mb 0.00 in0.0 mm 0.00 in0.0 mm 0.00 in0.0 mm
09:30 AM 60.4°F15.8°C 52.9°F11.6°C 76% 9.8 mph NNW15.8 kmh NNW 25.9 mph41.7 kmh 30.32 in1026.8 mb 0.00 in0.0 mm 0.00 in0.0 mm 0.00 in0.0 mm
09:45 AM 60.4°F15.8°C 53.6°F12.0°C 78% 5.4 mph NNW8.7 kmh NNW 22.1 mph35.6 kmh 30.32 in1026.8 mb 0.00 in0.0 mm 0.00 in0.0 mm 0.00 in0.0 mm
10:00 AM 60.8°F16.0°C 53.6°F12.0°C 77% 1.6 mph N2.6 kmh N 15.2 mph24.5 kmh 30.33 in1027.1 mb 0.00 in0.0 mm 0.00 in0.0 mm 0.00 in0.0 mm
10:15 AM 60.8°F16.0°C 53.9°F12.2°C 78% 0.7 mph NW1.1 kmh NW 23.5 mph37.8 kmh 30.33 in1027.1 mb 0.00 in0.0 mm 0.00 in0.0 mm 0.00 in0.0 mm
10:30 AM 61.0°F16.1°C 53.0°F11.7°C 75% 6.0 mph NNW9.7 kmh NNW 22.8 mph36.7 kmh 30.33 in1027.1 mb 0.00 in0.0 mm 0.00 in0.0 mm 0.00 in0.0 mm
10:45 AM 61.9°F16.6°C 54.2°F12.3°C 76% 2.2 mph NNW3.5 kmh NNW 19.7 mph31.7 kmh 30.33 in1027.1 mb 0.00 in0.0 mm 0.00 in0.0 mm 0.00 in0.0 mm
11:00 AM 62.6°F17.0°C 54.6°F12.6°C 75% 2.2 mph NNW3.5 kmh NNW 22.8 mph36.7 kmh 30.33 in1027.1 mb 0.00 in0.0 mm 0.00 in0.0 mm 0.00 in0.0 mm
11:15 AM 63.0°F17.2°C 53.8°F12.1°C 72% 11.4 mph N18.3 kmh N 21.3 mph34.3 kmh 30.34 in1027.4 mb 0.00 in0.0 mm 0.00 in0.0 mm 0.00 in0.0 mm
11:30 AM 63.3°F17.4°C 53.8°F12.1°C 71% 9.2 mph NW14.8 kmh NW 26.6 mph42.8 kmh 30.34 in1027.4 mb 0.00 in0.0 mm 0.00 in0.0 mm 0.00 in0.0 mm
11:45 AM 64.0°F17.8°C 54.1°F12.3°C 70% 3.1 mph NNW5.0 kmh NNW 20.6 mph33.2 kmh 30.35 in1027.8 mb 0.00 in0.0 mm 0.00 in0.0 mm 0.00 in0.0 mm
12:00 PM 63.9°F17.7°C 54.7°F12.6°C 72% 8.3 mph NNW13.4 kmh NNW 23.5 mph37.8 kmh 30.35 in1027.8 mb 0.00 in0.0 mm 0.00 in0.0 mm 0.00 in0.0 mm
12:15 PM 64.8°F18.2°C 54.4°F12.4°C 69% 9.2 mph NNW14.8 kmh NNW 20.6 mph33.2 kmh 30.35 in1027.8 mb 0.00 in0.0 mm 0.00 in0.0 mm 0.00 in0.0 mm
12:30 PM 64.8°F18.2°C 54.4°F12.4°C 69% 6.9 mph NNW11.1 kmh NNW 19.0 mph30.6 kmh 30.35 in1027.8 mb 0.00 in0.0 mm 0.00 in0.0 mm 0.00 in0.0 mm
12:45 PM 66.2°F19.0°C 56.5°F13.6°C 71% 1.6 mph NNW2.6 kmh NNW 19.0 mph30.6 kmh 30.34 in1027.4 mb 0.00 in0.0 mm 0.00 in0.0 mm 0.00 in0.0 mm
01:00 PM 65.1°F18.4°C 55.5°F13.1°C 71% 5.4 mph N8.7 kmh N 25.9 mph41.7 kmh 30.35 in1027.8 mb 0.00 in0.0 mm 0.00 in0.0 mm 0.00 in0.0 mm
01:15 PM 66.0°F18.9°C 56.0°F13.3°C 70% 5.4 mph N8.7 kmh N 15.9 mph25.6 kmh 30.34 in1027.4 mb 0.00 in0.0 mm 0.00 in0.0 mm 0.00 in0.0 mm
01:30 PM 66.9°F19.4°C 56.4°F13.6°C 69% 9.8 mph NW15.8 kmh NW 25.9 mph41.7 kmh 30.34 in1027.4 mb 0.00 in0.0 mm 0.00 in0.0 mm 0.00 in0.0 mm
01:45 PM 67.5°F19.7°C 57.0°F13.9°C 69% 2.2 mph N3.5 kmh N 22.1 mph35.6 kmh 30.34 in1027.4 mb 0.00 in0.0 mm 0.00 in0.0 mm 0.00 in0.0 mm
02:00 PM 66.4°F19.1°C 55.5°F13.1°C 68% 9.8 mph N15.8 kmh N 25.1 mph40.4 kmh 30.35 in1027.8 mb 0.00 in0.0 mm 0.00 in0.0 mm 0.00 in0.0 mm
02:15 PM 65.7°F18.7°C 54.4°F12.4°C 67% 6.9 mph N11.1 kmh N 24.4 mph39.3 kmh 30.34 in1027.4 mb 0.00 in0.0 mm 0.00 in0.0 mm 0.00 in0.0 mm
02:30 PM 65.3°F18.5°C 54.9°F12.7°C 69% 4.5 mph N7.2 kmh N 20.6 mph33.2 kmh 30.35 in1027.8 mb 0.00 in0.0 mm 0.00 in0.0 mm 0.00 in0.0 mm
02:45 PM 65.1°F18.4°C 55.5°F13.1°C 71% 2.2 mph NNW3.5 kmh NNW 14.5 mph23.3 kmh 30.35 in1027.8 mb 0.00 in0.0 mm 0.00 in0.0 mm 0.00 in0.0 mm
03:00 PM 64.9°F18.3°C 57.6°F14.2°C 77% 5.4 mph N8.7 kmh N 16.8 mph27.0 kmh 30.35 in1027.8 mb 0.00 in0.0 mm 0.00 in0.0 mm 0.00 in0.0 mm
03:15 PM 64.9°F18.3°C 56.1°F13.4°C 73% 1.6 mph N2.6 kmh N 16.8 mph27.0 kmh 30.35 in1027.8 mb 0.00 in0.0 mm 0.00 in0.0 mm 0.00 in0.0 mm
03:30 PM 64.4°F18.0°C 56.0°F13.3°C 74% Calm Calm 15.9 mph25.6 kmh 30.35 in1027.8 mb 0.00 in0.0 mm 0.00 in0.0 mm 0.00 in0.0 mm
03:45 PM 64.0°F17.8°C 56.0°F13.3°C 75% 0.7 mph N1.1 kmh N 12.1 mph19.5 kmh 30.36 in1028.1 mb 0.00 in0.0 mm 0.00 in0.0 mm 0.00 in0.0 mm
04:00 PM 64.0°F17.8°C 55.2°F12.9°C 73% 3.8 mph N6.1 kmh N 15.9 mph25.6 kmh 30.36 in1028.1 mb 0.00 in0.0 mm 0.00 in0.0 mm 0.00 in0.0 mm
04:15 PM 63.9°F17.7°C 55.4°F13.0°C 74% 3.1 mph N5.0 kmh N 16.8 mph27.0 kmh 30.36 in1028.1 mb 0.00 in0.0 mm 0.00 in0.0 mm 0.00 in0.0 mm
04:30 PM 63.7°F17.6°C 55.6°F13.1°C 75% Calm Calm 19.0 mph30.6 kmh 30.36 in1028.1 mb 0.00 in0.0 mm 0.00 in0.0 mm 0.00 in0.0 mm
04:45 PM 63.3°F17.4°C 55.6°F13.1°C 76% 0.7 mph N1.1 kmh N 15.2 mph24.5 kmh 30.37 in1028.4 mb 0.00 in0.0 mm 0.00 in0.0 mm 0.00 in0.0 mm
05:00 PM 62.8°F17.1°C 55.8°F13.2°C 78% 0.7 mph N1.1 kmh N 10.7 mph17.2 kmh 30.37 in1028.4 mb 0.00 in0.0 mm 0.00 in0.0 mm 0.00 in0.0 mm
05:15 PM 61.9°F16.6°C 56.7°F13.7°C 83% 1.6 mph N2.6 kmh N 8.3 mph13.4 kmh 30.38 in1028.8 mb 0.00 in0.0 mm 0.00 in0.0 mm 0.00 in0.0 mm
05:30 PM 61.2°F16.2°C 57.0°F13.9°C 86% 0.7 mph N1.1 kmh N 10.7 mph17.2 kmh 30.38 in1028.8 mb 0.00 in0.0 mm 0.00 in0.0 mm 0.00 in0.0 mm
05:45 PM 60.1°F15.6°C 58.1°F14.5°C 93% Calm Calm 8.3 mph13.4 kmh 30.39 in1029.1 mb 0.00 in0.0 mm 0.00 in0.0 mm 0.00 in0.0 mm
06:00 PM 59.5°F15.3°C 58.4°F14.7°C 96% 0.7 mph NNE1.1 kmh NNE 9.2 mph14.8 kmh 30.39 in1029.1 mb 0.00 in0.0 mm 0.00 in0.0 mm 0.00 in0.0 mm
06:15 PM 59.4°F15.2°C 58.2°F14.6°C 96% Calm Calm 9.8 mph15.8 kmh 30.39 in1029.1 mb 0.00 in0.0 mm 0.00 in0.0 mm 0.00 in0.0 mm
06:30 PM 59.7°F15.4°C 58.0°F14.4°C 94% 1.6 mph N2.6 kmh N 14.5 mph23.3 kmh 30.39 in1029.1 mb 0.00 in0.0 mm 0.00 in0.0 mm 0.00 in0.0 mm
06:45 PM 59.7°F15.4°C 57.4°F14.1°C 92% 2.2 mph N3.5 kmh N 11.4 mph18.3 kmh 30.40 in1029.5 mb 0.00 in0.0 mm 0.00 in0.0 mm 0.00 in0.0 mm
07:00 PM 59.0°F15.0°C 57.9°F14.4°C 96% 1.6 mph N2.6 kmh N 13.0 mph20.9 kmh 30.40 in1029.5 mb 0.00 in0.0 mm 0.00 in0.0 mm 0.00 in0.0 mm
07:15 PM 59.0°F15.0°C 57.6°F14.2°C 95% 0.7 mph N1.1 kmh N 6.9 mph11.1 kmh 30.40 in1029.5 mb 0.00 in0.0 mm 0.00 in0.0 mm 0.00 in0.0 mm
07:30 PM 59.0°F15.0°C 57.9°F14.4°C 96% Calm Calm 13.0 mph20.9 kmh 30.41 in1029.8 mb 0.00 in0.0 mm 0.00 in0.0 mm 0.00 in0.0 mm
07:45 PM 59.2°F15.1°C 57.5°F14.2°C 94% Calm Calm 9.2 mph14.8 kmh 30.41 in1029.8 mb 0.00 in0.0 mm 0.00 in0.0 mm 0.00 in0.0 mm
08:00 PM 59.4°F15.2°C 57.3°F14.1°C 93% Calm Calm 16.8 mph27.0 kmh 30.41 in1029.8 mb 0.00 in0.0 mm 0.00 in0.0 mm 0.00 in0.0 mm
08:15 PM 59.4°F15.2°C 57.0°F13.9°C 92% 0.7 mph N1.1 kmh N 13.0 mph20.9 kmh 30.41 in1029.8 mb 0.00 in0.0 mm 0.00 in0.0 mm 0.00 in0.0 mm
08:30 PM 59.4°F15.2°C 57.0°F13.9°C 92% 0.7 mph N1.1 kmh N 12.1 mph19.5 kmh 30.42 in1030.1 mb 0.00 in0.0 mm 0.00 in0.0 mm 0.00 in0.0 mm
08:45 PM 59.2°F15.1°C 57.5°F14.2°C 94% Calm Calm 5.4 mph8.7 kmh 30.43 in1030.5 mb 0.00 in0.0 mm 0.00 in0.0 mm 0.00 in0.0 mm
09:00 PM 59.0°F15.0°C 57.6°F14.2°C 95% 2.2 mph N3.5 kmh N 9.8 mph15.8 kmh 30.43 in1030.5 mb 0.00 in0.0 mm 0.00 in0.0 mm 0.00 in0.0 mm
09:15 PM 59.0°F15.0°C 57.3°F14.1°C 94% 0.7 mph N1.1 kmh N 13.6 mph21.9 kmh 30.43 in1030.5 mb 0.00 in0.0 mm 0.00 in0.0 mm 0.00 in0.0 mm
09:30 PM 58.8°F14.9°C 57.1°F13.9°C 94% Calm Calm 15.2 mph24.5 kmh 30.43 in1030.5 mb 0.00 in0.0 mm 0.00 in0.0 mm 0.00 in0.0 mm
09:45 PM 58.6°F14.8°C 57.2°F14.0°C 95% 2.2 mph N3.5 kmh N 15.2 mph24.5 kmh 30.43 in1030.5 mb 0.00 in0.0 mm 0.00 in0.0 mm 0.00 in0.0 mm
10:00 PM 58.6°F14.8°C 56.9°F13.8°C 94% 0.7 mph N1.1 kmh N 10.7 mph17.2 kmh 30.44 in1030.8 mb 0.00 in0.0 mm 0.00 in0.0 mm 0.00 in0.0 mm
10:15 PM 58.5°F14.7°C 57.0°F13.9°C 95% 0.7 mph N1.1 kmh N 13.6 mph21.9 kmh 30.44 in1030.8 mb 0.00 in0.0 mm 0.00 in0.0 mm 0.00 in0.0 mm
10:30 PM 58.3°F14.6°C 57.2°F14.0°C 96% 2.2 mph N3.5 kmh N 9.2 mph14.8 kmh 30.44 in1030.8 mb 0.00 in0.0 mm 0.00 in0.0 mm 0.00 in0.0 mm
10:45 PM 58.1°F14.5°C 57.6°F14.2°C 98% 0.7 mph N1.1 kmh N 13.0 mph20.9 kmh 30.44 in1030.8 mb 0.00 in0.0 mm 0.00 in0.0 mm 0.00 in0.0 mm
11:00 PM 57.9°F14.4°C 57.7°F14.3°C 99% 4.5 mph NNW7.2 kmh NNW 15.2 mph24.5 kmh 30.44 in1030.8 mb 0.00 in0.0 mm 0.00 in0.0 mm 0.00 in0.0 mm
11:15 PM 57.7°F14.3°C 57.5°F14.2°C 99% 1.6 mph N2.6 kmh N 13.6 mph21.9 kmh 30.43 in1030.5 mb 0.00 in0.0 mm 0.00 in0.0 mm 0.00 in0.0 mm
11:30 PM 57.7°F14.3°C 57.5°F14.2°C 99% Calm Calm 12.1 mph19.5 kmh 30.43 in1030.5 mb 0.00 in0.0 mm 0.00 in0.0 mm 0.00 in0.0 mm
11:45 PM 57.6°F14.2°C 57.3°F14.1°C 99% 2.2 mph N3.5 kmh N 7.6 mph12.2 kmh 30.44 in1030.8 mb 0.00 in0.0 mm 0.00 in0.0 mm 0.00 in0.0 mm